sensor_id;sensor_type;location;lat;lon;timestamp;pressure;altitude;pressure_sealevel;temperature;humidity
42603;BME280;28233;55.748;48.752;2023-05-02T00:01:20;99049.75;;;13.49;85.21
42603;BME280;28233;55.748;48.752;2023-05-02T00:03:23;99058.88;;;13.50;85.30
42603;BME280;28233;55.748;48.752;2023-05-02T00:05:27;99060.91;;;13.53;85.21
42603;BME280;28233;55.748;48.752;2023-05-02T00:07:30;99058.16;;;13.53;84.89
42603;BME280;28233;55.748;48.752;2023-05-02T00:09:33;99065.53;;;13.49;84.77
42603;BME280;28233;55.748;48.752;2023-05-02T00:11:36;99058.66;;;13.43;84.95
42603;BME280;28233;55.748;48.752;2023-05-02T00:13:39;99057.97;;;13.46;84.86
42603;BME280;28233;55.748;48.752;2023-05-02T00:15:41;99061.50;;;13.46;84.53
42603;BME280;28233;55.748;48.752;2023-05-02T00:17:44;99068.63;;;13.47;84.62
42603;BME280;28233;55.748;48.752;2023-05-02T00:19:48;99059.56;;;13.47;83.77
42603;BME280;28233;55.748;48.752;2023-05-02T00:21:50;99069.34;;;13.44;83.71
42603;BME280;28233;55.748;48.752;2023-05-02T00:23:54;99084.50;;;13.50;83.40
42603;BME280;28233;55.748;48.752;2023-05-02T00:26:00;99083.25;;;13.48;82.94
42603;BME280;28233;55.748;48.752;2023-05-02T00:28:04;99091.63;;;13.51;82.19
42603;BME280;28233;55.748;48.752;2023-05-02T00:30:07;99086.91;;;13.52;81.79
42603;BME280;28233;55.748;48.752;2023-05-02T00:32:10;99103.44;;;13.52;81.42
42603;BME280;28233;55.748;48.752;2023-05-02T00:34:13;99096.00;;;13.52;80.99
42603;BME280;28233;55.748;48.752;2023-05-02T00:36:18;99091.06;;;13.46;80.42
42603;BME280;28233;55.748;48.752;2023-05-02T00:38:21;99102.47;;;13.44;80.75
42603;BME280;28233;55.748;48.752;2023-05-02T00:40:24;99096.22;;;13.47;80.59
42603;BME280;28233;55.748;48.752;2023-05-02T00:42:27;99097.72;;;13.45;80.33
42603;BME280;28233;55.748;48.752;2023-05-02T00:44:33;99090.63;;;13.44;80.33
42603;BME280;28233;55.748;48.752;2023-05-02T00:46:35;99090.97;;;13.42;80.37
42603;BME280;28233;55.748;48.752;2023-05-02T00:48:39;99102.47;;;13.44;80.62
42603;BME280;28233;55.748;48.752;2023-05-02T00:50:42;99103.25;;;13.45;80.24
42603;BME280;28233;55.748;48.752;2023-05-02T00:52:45;99100.16;;;13.46;80.29
42603;BME280;28233;55.748;48.752;2023-05-02T00:54:48;99104.09;;;13.45;80.24
42603;BME280;28233;55.748;48.752;2023-05-02T00:56:51;99099.69;;;13.44;80.37
42603;BME280;28233;55.748;48.752;2023-05-02T00:58:54;99107.19;;;13.44;80.24
42603;BME280;28233;55.748;48.752;2023-05-02T01:05:43;99120.44;;;13.38;80.87
42603;BME280;28233;55.748;48.752;2023-05-02T01:12:44;99139.19;;;13.32;80.85
42603;BME280;28233;55.748;48.752;2023-05-02T01:14:53;99147.78;;;13.31;81.75
42603;BME280;28233;55.748;48.752;2023-05-02T01:16:58;99144.22;;;13.30;82.01
42603;BME280;28233;55.748;48.752;2023-05-02T01:19:08;99159.88;;;13.26;82.49
42603;BME280;28233;55.748;48.752;2023-05-02T01:21:14;99165.28;;;13.23;82.48
42603;BME280;28233;55.748;48.752;2023-05-02T01:23:27;99174.25;;;13.20;83.02
42603;BME280;28233;55.748;48.752;2023-05-02T01:27:50;99157.00;;;13.23;83.25
42603;BME280;28233;55.748;48.752;2023-05-02T01:29:59;99162.63;;;13.26;82.89
42603;BME280;28233;55.748;48.752;2023-05-02T01:32:06;99156.66;;;13.24;82.95
42603;BME280;28233;55.748;48.752;2023-05-02T01:34:10;99156.28;;;13.26;82.72
42603;BME280;28233;55.748;48.752;2023-05-02T01:36:14;99157.22;;;13.30;82.75
42603;BME280;28233;55.748;48.752;2023-05-02T01:38:19;99155.97;;;13.27;82.90
42603;BME280;28233;55.748;48.752;2023-05-02T01:40:24;99161.50;;;13.27;82.57
42603;BME280;28233;55.748;48.752;2023-05-02T01:42:28;99165.38;;;13.26;82.84
42603;BME280;28233;55.748;48.752;2023-05-02T01:44:33;99162.63;;;13.26;82.88
42603;BME280;28233;55.748;48.752;2023-05-02T01:46:40;99167.56;;;13.21;83.05
42603;BME280;28233;55.748;48.752;2023-05-02T01:48:47;99172.53;;;13.15;83.14
42603;BME280;28233;55.748;48.752;2023-05-02T01:50:55;99167.94;;;13.07;83.49
42603;BME280;28233;55.748;48.752;2023-05-02T01:52:59;99164.84;;;12.96;83.70
42603;BME280;28233;55.748;48.752;2023-05-02T01:55:05;99159.59;;;12.91;84.01
42603;BME280;28233;55.748;48.752;2023-05-02T01:57:11;99165.44;;;12.89;84.45
42603;BME280;28233;55.748;48.752;2023-05-02T01:59:17;99162.56;;;12.86;84.89
42603;BME280;28233;55.748;48.752;2023-05-02T02:01:23;99162.56;;;12.74;85.47
42603;BME280;28233;55.748;48.752;2023-05-02T02:03:30;99166.47;;;12.73;85.76
42603;BME280;28233;55.748;48.752;2023-05-02T02:05:33;99172.78;;;12.73;85.43
42603;BME280;28233;55.748;48.752;2023-05-02T02:07:37;99170.38;;;12.72;85.62
42603;BME280;28233;55.748;48.752;2023-05-02T02:09:40;99167.28;;;12.73;85.41
42603;BME280;28233;55.748;48.752;2023-05-02T02:11:56;99161.75;;;12.73;85.57
42603;BME280;28233;55.748;48.752;2023-05-02T02:14:05;99159.25;;;12.68;85.66
42603;BME280;28233;55.748;48.752;2023-05-02T02:16:30;99157.84;;;12.62;85.98
42603;BME280;28233;55.748;48.752;2023-05-02T02:18:38;99164.41;;;12.57;86.77
42603;BME280;28233;55.748;48.752;2023-05-02T02:20:43;99157.63;;;12.55;86.77
42603;BME280;28233;55.748;48.752;2023-05-02T02:22:47;99167.25;;;12.48;87.23
42603;BME280;28233;55.748;48.752;2023-05-02T02:24:51;99169.44;;;12.43;87.70
42603;BME280;28233;55.748;48.752;2023-05-02T02:26:55;99173.22;;;12.38;88.08
42603;BME280;28233;55.748;48.752;2023-05-02T02:28:59;99176.91;;;12.42;87.92
42603;BME280;28233;55.748;48.752;2023-05-02T02:31:02;99191.03;;;12.53;87.85
42603;BME280;28233;55.748;48.752;2023-05-02T02:33:05;99199.53;;;12.60;87.48
42603;BME280;28233;55.748;48.752;2023-05-02T02:35:09;99202.41;;;12.64;86.87
42603;BME280;28233;55.748;48.752;2023-05-02T02:37:19;99217.47;;;12.66;86.77
42603;BME280;28233;55.748;48.752;2023-05-02T02:44:30;99239.28;;;12.72;87.04
42603;BME280;28233;55.748;48.752;2023-05-02T02:49:26;99262.97;;;12.73;87.29
42603;BME280;28233;55.748;48.752;2023-05-02T02:51:41;99264.09;;;12.72;87.69
42603;BME280;28233;55.748;48.752;2023-05-02T02:56:00;99280.88;;;12.79;87.92
42603;BME280;28233;55.748;48.752;2023-05-02T02:58:30;99289.28;;;12.82;88.04
42603;BME280;28233;55.748;48.752;2023-05-02T03:00:38;99293.53;;;12.80;87.87
42603;BME280;28233;55.748;48.752;2023-05-02T03:02:41;99298.44;;;12.74;88.09
42603;BME280;28233;55.748;48.752;2023-05-02T03:04:46;99304.88;;;12.78;88.15
42603;BME280;28233;55.748;48.752;2023-05-02T03:06:49;99302.59;;;12.80;88.68
42603;BME280;28233;55.748;48.752;2023-05-02T03:08:52;99301.78;;;12.80;88.91
42603;BME280;28233;55.748;48.752;2023-05-02T03:10:55;99305.69;;;12.79;89.42
42603;BME280;28233;55.748;48.752;2023-05-02T03:12:58;99303.84;;;12.83;89.65
42603;BME280;28233;55.748;48.752;2023-05-02T03:17:40;99307.19;;;12.76;90.61
42603;BME280;28233;55.748;48.752;2023-05-02T03:19:43;99310.97;;;12.84;91.05
42603;BME280;28233;55.748;48.752;2023-05-02T03:21:46;99318.66;;;12.78;91.45
42603;BME280;28233;55.748;48.752;2023-05-02T03:23:49;99308.44;;;12.79;91.81
42603;BME280;28233;55.748;48.752;2023-05-02T03:25:52;99306.84;;;12.78;92.28
42603;BME280;28233;55.748;48.752;2023-05-02T03:27:56;99302.47;;;12.77;92.59
42603;BME280;28233;55.748;48.752;2023-05-02T03:29:59;99292.91;;;12.62;93.01
42603;BME280;28233;55.748;48.752;2023-05-02T03:32:06;99300.69;;;12.60;94.13
42603;BME280;28233;55.748;48.752;2023-05-02T03:34:09;99292.91;;;12.62;94.77
42603;BME280;28233;55.748;48.752;2023-05-02T03:36:13;99291.84;;;12.54;94.64
42603;BME280;28233;55.748;48.752;2023-05-02T03:38:16;99297.78;;;12.44;94.76
42603;BME280;28233;55.748;48.752;2023-05-02T03:40:19;99291.09;;;12.33;95.68
42603;BME280;28233;55.748;48.752;2023-05-02T03:42:23;99291.44;;;12.31;96.67
42603;BME280;28233;55.748;48.752;2023-05-02T03:44:26;99289.59;;;12.23;97.73
42603;BME280;28233;55.748;48.752;2023-05-02T03:46:29;99287.16;;;12.21;98.15
42603;BME280;28233;55.748;48.752;2023-05-02T03:48:32;99293.13;;;12.23;98.17
42603;BME280;28233;55.748;48.752;2023-05-02T03:50:35;99279.44;;;12.15;98.09
42603;BME280;28233;55.748;48.752;2023-05-02T03:52:38;99268.50;;;12.06;98.57
42603;BME280;28233;55.748;48.752;2023-05-02T03:54:41;99267.00;;;12.09;99.36
42603;BME280;28233;55.748;48.752;2023-05-02T03:56:45;99250.84;;;12.07;98.95
42603;BME280;28233;55.748;48.752;2023-05-02T03:58:48;99247.47;;;12.01;99.14
42603;BME280;28233;55.748;48.752;2023-05-02T04:00:51;99233.13;;;11.96;99.11
42603;BME280;28233;55.748;48.752;2023-05-02T04:02:55;99222.91;;;11.96;99.21
42603;BME280;28233;55.748;48.752;2023-05-02T04:04:58;99217.53;;;12.00;99.77
42603;BME280;28233;55.748;48.752;2023-05-02T04:07:01;99230.41;;;12.08;99.85
42603;BME280;28233;55.748;48.752;2023-05-02T04:09:03;99241.56;;;12.12;99.73
42603;BME280;28233;55.748;48.752;2023-05-02T04:11:07;99235.25;;;12.11;99.14
42603;BME280;28233;55.748;48.752;2023-05-02T04:13:10;99254.19;;;12.13;98.87
42603;BME280;28233;55.748;48.752;2023-05-02T04:15:13;99256.59;;;12.14;98.39
42603;BME280;28233;55.748;48.752;2023-05-02T04:17:15;99248.66;;;12.13;98.91
42603;BME280;28233;55.748;48.752;2023-05-02T04:19:18;99255.34;;;12.12;97.90
42603;BME280;28233;55.748;48.752;2023-05-02T04:21:21;99245.13;;;12.12;97.76
42603;BME280;28233;55.748;48.752;2023-05-02T04:23:24;99256.72;;;12.18;97.26
42603;BME280;28233;55.748;48.752;2023-05-02T04:25:27;99263.50;;;12.20;97.06
42603;BME280;28233;55.748;48.752;2023-05-02T04:27:30;99262.22;;;12.18;97.05
42603;BME280;28233;55.748;48.752;2023-05-02T04:29:33;99262.16;;;12.26;96.36
42603;BME280;28233;55.748;48.752;2023-05-02T04:31:36;99256.78;;;12.30;95.10
42603;BME280;28233;55.748;48.752;2023-05-02T04:33:39;99229.41;;;12.25;94.44
42603;BME280;28233;55.748;48.752;2023-05-02T04:35:41;99244.06;;;12.38;94.63
42603;BME280;28233;55.748;48.752;2023-05-02T04:37:45;99231.66;;;12.44;94.12
42603;BME280;28233;55.748;48.752;2023-05-02T04:39:48;99246.72;;;12.46;93.36
42603;BME280;28233;55.748;48.752;2023-05-02T04:41:51;99246.03;;;12.62;92.84
42603;BME280;28233;55.748;48.752;2023-05-02T04:43:54;99258.22;;;12.61;92.50
42603;BME280;28233;55.748;48.752;2023-05-02T04:45:57;99257.16;;;12.53;92.57
42603;BME280;28233;55.748;48.752;2023-05-02T04:48:00;99261.06;;;12.52;93.17
42603;BME280;28233;55.748;48.752;2023-05-02T04:50:03;99251.66;;;12.53;91.27
42603;BME280;28233;55.748;48.752;2023-05-02T04:52:06;99260.28;;;12.64;89.80
42603;BME280;28233;55.748;48.752;2023-05-02T04:54:09;99256.50;;;12.68;88.51
42603;BME280;28233;55.748;48.752;2023-05-02T04:56:13;99261.22;;;12.68;88.13
42603;BME280;28233;55.748;48.752;2023-05-02T04:58:15;99265.25;;;12.71;88.51
42603;BME280;28233;55.748;48.752;2023-05-02T05:00:19;99265.72;;;12.73;87.66
42603;BME280;28233;55.748;48.752;2023-05-02T05:02:23;99275.59;;;12.74;87.11
42603;BME280;28233;55.748;48.752;2023-05-02T05:04:27;99285.50;;;12.87;87.40
42603;BME280;28233;55.748;48.752;2023-05-02T05:06:30;99281.56;;;13.00;87.07
42603;BME280;28233;55.748;48.752;2023-05-02T05:08:33;99277.78;;;12.93;86.08
42603;BME280;28233;55.748;48.752;2023-05-02T05:10:36;99273.19;;;12.84;86.25
42603;BME280;28233;55.748;48.752;2023-05-02T05:12:39;99270.31;;;12.81;86.59
42603;BME280;28233;55.748;48.752;2023-05-02T05:14:42;99271.69;;;12.75;87.97
42603;BME280;28233;55.748;48.752;2023-05-02T05:16:45;99276.41;;;12.86;86.77
42603;BME280;28233;55.748;48.752;2023-05-02T05:18:48;99296.41;;;12.96;86.57
42603;BME280;28233;55.748;48.752;2023-05-02T05:20:51;99299.28;;;13.11;85.90
42603;BME280;28233;55.748;48.752;2023-05-02T05:22:54;99297.34;;;13.24;84.94
42603;BME280;28233;55.748;48.752;2023-05-02T05:24:57;99297.34;;;13.24;83.85
42603;BME280;28233;55.748;48.752;2023-05-02T05:27:00;99304.81;;;13.24;83.69
42603;BME280;28233;55.748;48.752;2023-05-02T05:29:04;99321.97;;;13.42;84.16
42603;BME280;28233;55.748;48.752;2023-05-02T05:31:08;99317.00;;;13.23;82.81
42603;BME280;28233;55.748;48.752;2023-05-02T05:33:11;99335.78;;;13.29;82.26
42603;BME280;28233;55.748;48.752;2023-05-02T05:35:14;99334.28;;;13.32;81.54
42603;BME280;28233;55.748;48.752;2023-05-02T05:37:17;99337.28;;;13.39;81.67
42603;BME280;28233;55.748;48.752;2023-05-02T05:39:20;99328.97;;;13.27;81.43
42603;BME280;28233;55.748;48.752;2023-05-02T05:41:23;99337.47;;;13.22;81.30
42603;BME280;28233;55.748;48.752;2023-05-02T05:43:26;99344.47;;;13.19;80.17
42603;BME280;28233;55.748;48.752;2023-05-02T05:45:29;99334.72;;;13.22;80.37
42603;BME280;28233;55.748;48.752;2023-05-02T05:47:32;99323.56;;;13.18;81.62
42603;BME280;28233;55.748;48.752;2023-05-02T05:49:35;99320.00;;;13.05;82.46
42603;BME280;28233;55.748;48.752;2023-05-02T05:51:40;99314.13;;;13.07;81.98
42603;BME280;28233;55.748;48.752;2023-05-02T05:53:43;99320.00;;;13.05;82.29
42603;BME280;28233;55.748;48.752;2023-05-02T05:55:46;99337.44;;;12.97;83.32
42603;BME280;28233;55.748;48.752;2023-05-02T05:57:49;99362.47;;;12.92;84.24
42603;BME280;28233;55.748;48.752;2023-05-02T05:59:52;99397.06;;;12.89;84.83
42603;BME280;28233;55.748;48.752;2023-05-02T06:01:55;99380.63;;;12.93;87.51
42603;BME280;28233;55.748;48.752;2023-05-02T06:03:59;99389.13;;;13.00;88.75
42603;BME280;28233;55.748;48.752;2023-05-02T06:06:03;99402.34;;;12.95;88.29
42603;BME280;28233;55.748;48.752;2023-05-02T06:08:06;99418.56;;;12.96;90.42
42603;BME280;28233;55.748;48.752;2023-05-02T06:10:09;99429.34;;;12.89;90.95
42603;BME280;28233;55.748;48.752;2023-05-02T06:12:12;99444.00;;;12.81;90.16
42603;BME280;28233;55.748;48.752;2023-05-02T06:14:15;99458.81;;;12.76;90.74
42603;BME280;28233;55.748;48.752;2023-05-02T06:16:18;99448.31;;;12.69;92.30
42603;BME280;28233;55.748;48.752;2023-05-02T06:18:21;99454.84;;;12.65;95.15
42603;BME280;28233;55.748;48.752;2023-05-02T06:20:24;99455.41;;;12.58;95.21
42603;BME280;28233;55.748;48.752;2023-05-02T06:22:27;99440.78;;;12.58;96.89
42603;BME280;28233;55.748;48.752;2023-05-02T06:24:30;99431.66;;;12.45;94.96
42603;BME280;28233;55.748;48.752;2023-05-02T06:26:33;99436.13;;;12.37;95.86
42603;BME280;28233;55.748;48.752;2023-05-02T06:28:36;99433.53;;;12.32;95.57
42603;BME280;28233;55.748;48.752;2023-05-02T06:30:39;99443.22;;;12.38;96.69
42603;BME280;28233;55.748;48.752;2023-05-02T06:32:42;99437.88;;;12.42;97.21
42603;BME280;28233;55.748;48.752;2023-05-02T06:34:45;99431.06;;;12.39;96.84
42603;BME280;28233;55.748;48.752;2023-05-02T06:36:48;99421.19;;;12.38;96.45
42603;BME280;28233;55.748;48.752;2023-05-02T06:38:55;99431.94;;;12.31;96.60
42603;BME280;28233;55.748;48.752;2023-05-02T06:40:58;99422.91;;;12.22;97.71
42603;BME280;28233;55.748;48.752;2023-05-02T06:43:01;99426.31;;;12.27;99.23
42603;BME280;28233;55.748;48.752;2023-05-02T06:45:04;99425.81;;;12.25;98.27
42603;BME280;28233;55.748;48.752;2023-05-02T06:47:07;99406.41;;;12.22;99.06
42603;BME280;28233;55.748;48.752;2023-05-02T06:49:10;99425.09;;;12.37;99.66
42603;BME280;28233;55.748;48.752;2023-05-02T06:51:13;99432.34;;;12.42;100.00
42603;BME280;28233;55.748;48.752;2023-05-02T06:53:16;99438.41;;;12.56;100.00
42603;BME280;28233;55.748;48.752;2023-05-02T06:55:19;99437.91;;;12.54;97.79
42603;BME280;28233;55.748;48.752;2023-05-02T06:57:23;99433.19;;;12.76;99.81
42603;BME280;28233;55.748;48.752;2023-05-02T06:59:26;99434.97;;;12.93;98.37
42603;BME280;28233;55.748;48.752;2023-05-02T07:01:30;99442.16;;;13.06;98.00
42603;BME280;28233;55.748;48.752;2023-05-02T07:03:33;99455.88;;;13.27;98.93
42603;BME280;28233;55.748;48.752;2023-05-02T07:05:36;99460.91;;;13.46;97.54
42603;BME280;28233;55.748;48.752;2023-05-02T07:07:39;99469.97;;;13.46;93.11
42603;BME280;28233;55.748;48.752;2023-05-02T07:09:42;99467.78;;;13.52;92.38
42603;BME280;28233;55.748;48.752;2023-05-02T07:11:44;99453.09;;;13.60;90.92
42603;BME280;28233;55.748;48.752;2023-05-02T07:13:47;99460.59;;;13.84;91.18
42603;BME280;28233;55.748;48.752;2023-05-02T07:15:50;99446.66;;;14.05;88.53
42603;BME280;28233;55.748;48.752;2023-05-02T07:17:53;99443.78;;;14.14;86.85
42603;BME280;28233;55.748;48.752;2023-05-02T07:19:56;99443.41;;;14.15;85.55
42603;BME280;28233;55.748;48.752;2023-05-02T07:21:59;99452.53;;;14.16;83.88
42603;BME280;28233;55.748;48.752;2023-05-02T07:24:02;99458.03;;;14.04;82.28
42603;BME280;28233;55.748;48.752;2023-05-02T07:26:05;99469.91;;;13.92;80.63
42603;BME280;28233;55.748;48.752;2023-05-02T07:28:08;99477.63;;;13.86;82.62
42603;BME280;28233;55.748;48.752;2023-05-02T07:30:12;99474.63;;;13.91;83.43
42603;BME280;28233;55.748;48.752;2023-05-02T07:32:14;99485.22;;;13.89;83.36
42603;BME280;28233;55.748;48.752;2023-05-02T07:34:17;99486.84;;;13.78;82.70
42603;BME280;28233;55.748;48.752;2023-05-02T07:36:20;99476.00;;;13.73;82.25
42603;BME280;28233;55.748;48.752;2023-05-02T07:38:23;99478.50;;;13.66;82.77
42603;BME280;28233;55.748;48.752;2023-05-02T07:40:26;99488.53;;;13.58;82.91
42603;BME280;28233;55.748;48.752;2023-05-02T07:42:30;99487.16;;;13.77;83.91
42603;BME280;28233;55.748;48.752;2023-05-02T07:44:33;99494.41;;;13.93;84.39
42603;BME280;28233;55.748;48.752;2023-05-02T07:46:37;99490.16;;;13.96;83.13
42603;BME280;28233;55.748;48.752;2023-05-02T07:48:40;99500.88;;;13.98;82.83
42603;BME280;28233;55.748;48.752;2023-05-02T07:50:44;99502.59;;;14.02;82.18
42603;BME280;28233;55.748;48.752;2023-05-02T07:52:47;99509.84;;;14.07;82.65
42603;BME280;28233;55.748;48.752;2023-05-02T07:54:50;99505.03;;;14.16;80.80
42603;BME280;28233;55.748;48.752;2023-05-02T07:56:53;99513.66;;;14.02;78.50
42603;BME280;28233;55.748;48.752;2023-05-02T07:58:58;99519.03;;;13.99;80.09
42603;BME280;28233;55.748;48.752;2023-05-02T08:01:02;99530.56;;;13.88;78.03
42603;BME280;28233;55.748;48.752;2023-05-02T08:03:05;99530.31;;;13.81;78.33
42603;BME280;28233;55.748;48.752;2023-05-02T08:05:09;99528.44;;;13.73;77.80
42603;BME280;28233;55.748;48.752;2023-05-02T08:07:12;99528.22;;;13.66;78.09
42603;BME280;28233;55.748;48.752;2023-05-02T08:09:15;99519.59;;;13.67;78.93
42603;BME280;28233;55.748;48.752;2023-05-02T08:11:18;99514.88;;;13.80;79.69
42603;BME280;28233;55.748;48.752;2023-05-02T08:13:23;99518.09;;;13.82;79.77
42603;BME280;28233;55.748;48.752;2023-05-02T08:15:26;99524.56;;;13.86;81.90
42603;BME280;28233;55.748;48.752;2023-05-02T08:17:29;99525.63;;;14.06;83.96
42603;BME280;28233;55.748;48.752;2023-05-02T08:19:32;99522.97;;;14.10;81.62
42603;BME280;28233;55.748;48.752;2023-05-02T08:21:35;99530.78;;;14.20;81.04
42603;BME280;28233;55.748;48.752;2023-05-02T08:23:40;99531.16;;;14.06;78.18
42603;BME280;28233;55.748;48.752;2023-05-02T08:25:43;99531.38;;;14.01;80.01
42603;BME280;28233;55.748;48.752;2023-05-02T08:27:46;99522.63;;;14.11;80.13
42603;BME280;28233;55.748;48.752;2023-05-02T08:29:49;99532.50;;;14.25;80.04
42603;BME280;28233;55.748;48.752;2023-05-02T08:31:52;99516.50;;;14.43;79.52
42603;BME280;28233;55.748;48.752;2023-05-02T08:33:55;99532.50;;;14.62;78.81
42603;BME280;28233;55.748;48.752;2023-05-02T08:35:57;99535.03;;;14.67;77.72
42603;BME280;28233;55.748;48.752;2023-05-02T08:38:01;99542.53;;;14.66;76.18
42603;BME280;28233;55.748;48.752;2023-05-02T08:40:05;99540.91;;;14.53;75.74
42603;BME280;28233;55.748;48.752;2023-05-02T08:42:09;99544.50;;;14.29;75.45
42603;BME280;28233;55.748;48.752;2023-05-02T08:44:12;99543.09;;;14.10;76.62
42603;BME280;28233;55.748;48.752;2023-05-02T08:46:16;99539.78;;;14.05;77.04
42603;BME280;28233;55.748;48.752;2023-05-02T08:48:19;99545.63;;;13.91;77.26
42603;BME280;28233;55.748;48.752;2023-05-02T08:50:23;99547.69;;;13.82;76.84
42603;BME280;28233;55.748;48.752;2023-05-02T08:52:26;99551.00;;;13.75;77.70
42603;BME280;28233;55.748;48.752;2023-05-02T08:54:30;99557.13;;;13.81;78.54
42603;BME280;28233;55.748;48.752;2023-05-02T08:56:34;99553.22;;;13.82;78.52
42603;BME280;28233;55.748;48.752;2023-05-02T08:58:38;99548.13;;;13.71;77.52
42603;BME280;28233;55.748;48.752;2023-05-02T09:00:41;99548.69;;;13.65;78.12
42603;BME280;28233;55.748;48.752;2023-05-02T09:05:06;99568.50;;;13.67;78.32
42603;BME280;28233;55.748;48.752;2023-05-02T09:07:09;99550.06;;;13.59;78.23
42603;BME280;28233;55.748;48.752;2023-05-02T09:09:12;99560.97;;;13.55;78.96
42603;BME280;28233;55.748;48.752;2023-05-02T09:11:15;99556.81;;;13.49;79.01
42603;BME280;28233;55.748;48.752;2023-05-02T09:13:32;99550.00;;;13.34;79.59
42603;BME280;28233;55.748;48.752;2023-05-02T09:15:37;99558.63;;;13.24;79.75
42603;BME280;28233;55.748;48.752;2023-05-02T09:17:44;99542.84;;;13.12;80.29
42603;BME280;28233;55.748;48.752;2023-05-02T09:19:59;99549.66;;;12.94;82.31
42603;BME280;28233;55.748;48.752;2023-05-02T09:22:05;99549.19;;;12.92;82.95
42603;BME280;28233;55.748;48.752;2023-05-02T09:24:16;99543.41;;;12.84;83.97
42603;BME280;28233;55.748;48.752;2023-05-02T09:26:20;99544.94;;;12.73;86.57
42603;BME280;28233;55.748;48.752;2023-05-02T09:28:37;99550.94;;;12.75;88.12
42603;BME280;28233;55.748;48.752;2023-05-02T09:30:41;99544.69;;;12.66;89.12
42603;BME280;28233;55.748;48.752;2023-05-02T09:32:45;99552.78;;;12.62;89.88
42603;BME280;28233;55.748;48.752;2023-05-02T09:35:04;99560.47;;;12.57;92.02
42603;BME280;28233;55.748;48.752;2023-05-02T09:37:08;99547.53;;;12.48;94.09
42603;BME280;28233;55.748;48.752;2023-05-02T09:39:14;99560.22;;;12.41;96.15
42603;BME280;28233;55.748;48.752;2023-05-02T09:41:17;99568.09;;;12.30;97.60
42603;BME280;28233;55.748;48.752;2023-05-02T09:43:22;99567.81;;;12.14;99.19
42603;BME280;28233;55.748;48.752;2023-05-02T09:45:25;99556.53;;;11.98;100.00
42603;BME280;28233;55.748;48.752;2023-05-02T09:47:28;99547.03;;;11.87;100.00
42603;BME280;28233;55.748;48.752;2023-05-02T09:49:39;99550.44;;;11.75;100.00
42603;BME280;28233;55.748;48.752;2023-05-02T09:51:43;99544.00;;;11.62;100.00
42603;BME280;28233;55.748;48.752;2023-05-02T09:53:46;99548.91;;;11.48;100.00
42603;BME280;28233;55.748;48.752;2023-05-02T09:56:00;99544.56;;;11.38;100.00
42603;BME280;28233;55.748;48.752;2023-05-02T09:58:03;99544.88;;;11.37;100.00
42603;BME280;28233;55.748;48.752;2023-05-02T10:00:07;99534.84;;;11.32;100.00
42603;BME280;28233;55.748;48.752;2023-05-02T10:02:11;99546.50;;;11.29;100.00
42603;BME280;28233;55.748;48.752;2023-05-02T10:04:14;99557.34;;;11.26;100.00
42603;BME280;28233;55.748;48.752;2023-05-02T10:06:19;99573.53;;;11.18;100.00
42603;BME280;28233;55.748;48.752;2023-05-02T10:08:26;99591.50;;;11.16;100.00
42603;BME280;28233;55.748;48.752;2023-05-02T10:10:32;99607.81;;;11.21;100.00
42603;BME280;28233;55.748;48.752;2023-05-02T10:12:38;99630.00;;;11.25;100.00
42603;BME280;28233;55.748;48.752;2023-05-02T10:14:50;99639.53;;;11.27;100.00
42603;BME280;28233;55.748;48.752;2023-05-02T10:17:00;99643.91;;;11.28;100.00
42603;BME280;28233;55.748;48.752;2023-05-02T10:19:08;99652.00;;;11.33;100.00
42603;BME280;28233;55.748;48.752;2023-05-02T10:21:15;99663.16;;;11.37;100.00
42603;BME280;28233;55.748;48.752;2023-05-02T10:23:20;99668.19;;;11.43;100.00
42603;BME280;28233;55.748;48.752;2023-05-02T10:25:23;99672.53;;;11.45;100.00
42603;BME280;28233;55.748;48.752;2023-05-02T10:27:29;99667.84;;;11.45;100.00
42603;BME280;28233;55.748;48.752;2023-05-02T10:29:32;99663.00;;;11.25;100.00
42603;BME280;28233;55.748;48.752;2023-05-02T10:31:36;99669.94;;;11.05;100.00
42603;BME280;28233;55.748;48.752;2023-05-02T10:33:41;99668.78;;;10.97;100.00
42603;BME280;28233;55.748;48.752;2023-05-02T10:35:44;99667.50;;;10.94;100.00
42603;BME280;28233;55.748;48.752;2023-05-02T10:37:50;99654.72;;;10.90;100.00
42603;BME280;28233;55.748;48.752;2023-05-02T10:39:54;99652.59;;;10.87;100.00
42603;BME280;28233;55.748;48.752;2023-05-02T10:41:58;99650.13;;;10.76;100.00
42603;BME280;28233;55.748;48.752;2023-05-02T10:44:03;99642.09;;;10.80;100.00
42603;BME280;28233;55.748;48.752;2023-05-02T10:46:33;99627.03;;;10.86;100.00
42603;BME280;28233;55.748;48.752;2023-05-02T10:48:36;99618.47;;;10.79;100.00
42603;BME280;28233;55.748;48.752;2023-05-02T10:52:49;99598.09;;;10.80;100.00
42603;BME280;28233;55.748;48.752;2023-05-02T10:55:19;99597.13;;;10.76;100.00
42603;BME280;28233;55.748;48.752;2023-05-02T10:57:23;99596.16;;;10.81;100.00
42603;BME280;28233;55.748;48.752;2023-05-02T10:59:36;99600.38;;;10.78;100.00
42603;BME280;28233;55.748;48.752;2023-05-02T11:01:39;99592.91;;;10.70;100.00
42603;BME280;28233;55.748;48.752;2023-05-02T11:03:57;99591.94;;;10.66;100.00
42603;BME280;28233;55.748;48.752;2023-05-02T11:06:04;99580.78;;;10.71;100.00
42603;BME280;28233;55.748;48.752;2023-05-02T11:12:43;99568.84;;;10.75;100.00
42603;BME280;28233;55.748;48.752;2023-05-02T11:14:50;99564.31;;;10.79;100.00
42603;BME280;28233;55.748;48.752;2023-05-02T11:19:07;99555.72;;;10.81;100.00
42603;BME280;28233;55.748;48.752;2023-05-02T11:21:29;99558.34;;;10.77;100.00
42603;BME280;28233;55.748;48.752;2023-05-02T11:23:34;99552.19;;;10.81;100.00
42603;BME280;28233;55.748;48.752;2023-05-02T11:25:40;99547.63;;;10.67;100.00